Time;durP1;ratioP1;P1;durP2;ratioP2;P2;SDS_P1;SDS_P2;PMS_P1;PMS_P2;Temp;Humidity;BMP_temperature;BMP_pressure;BME280_temperature;BME280_humidity;BME280_pressure;Samples;Min_cycle;Max_cycle;Signal;HPM_P1;HPM_P2
2022/10/04 00:01:01;;;;;;;1.48;0.77;;;;;;;;;;5045742;28;20051;-52
2022/10/04 00:03:29;;;;;;;1.25;0.80;;;;;;;;;;5052138;28;20091;-52
2022/10/04 00:05:58;;;;;;;2.70;0.93;;;;;;;;;;5051914;28;20455;-51
2022/10/04 00:08:41;;;;;;;1.52;0.80;;;;;;;;;;5052089;28;20041;-54
2022/10/04 00:11:18;;;;;;;2.78;0.80;;;;;;;;;;5037091;28;20052;-52
2022/10/04 00:13:53;;;;;;;1.85;0.75;;;;;;;;;;5053272;28;20048;-54
2022/10/04 00:16:23;;;;;;;1.80;0.80;;;;;;;;;;5042475;28;20087;-50
2022/10/04 00:19:00;;;;;;;1.42;0.80;;;;;;;;;;5048038;28;20049;-50
2022/10/04 00:21:52;;;;;;;1.95;0.90;;;;;;;;;;5052616;28;20133;-53
2022/10/04 00:24:36;;;;;;;2.22;0.90;;;;;;;;;;5038006;28;20049;-50
2022/10/04 00:27:24;;;;;;;2.15;0.90;;;;;;;;;;5049158;28;20078;-54
2022/10/04 00:30:01;;;;;;;1.20;0.60;;;;;;;;;;5052949;28;20064;-52
2022/10/04 00:32:30;;;;;;;2.00;1.00;;;;;;;;;;5052196;28;20477;-53
2022/10/04 00:34:57;;;;;;;1.67;0.70;;;;;;;;;;5052857;28;20037;-57
2022/10/04 00:37:24;;;;;;;1.85;0.77;;;;;;;;;;5046273;28;20048;-50
2022/10/04 00:40:10;;;;;;;1.88;0.80;;;;;;;;;;5058923;28;20031;-51
2022/10/04 00:42:44;;;;;;;1.45;0.70;;;;;;;;;;5067288;28;20037;-54
2022/10/04 00:45:12;;;;;;;1.13;0.70;;;;;;;;;;5050853;28;20480;-53
2022/10/04 00:48:24;;;;;;;2.05;0.80;;;;;;;;;;5049886;28;20041;-50
2022/10/04 00:51:20;;;;;;;1.35;0.73;;;;;;;;;;5030976;28;20048;-53
2022/10/04 00:54:00;;;;;;;2.10;0.80;;;;;;;;;;5045104;28;20033;-54
2022/10/04 00:56:54;;;;;;;1.70;1.20;;;;;;;;;;5040940;28;20033;-53
2022/10/04 00:59:46;;;;;;;2.10;0.90;;;;;;;;;;5041425;28;20079;-53
2022/10/04 01:02:18;;;;;;;1.52;0.80;;;;;;;;;;5049864;28;20488;-54
2022/10/04 01:04:58;;;;;;;1.17;0.70;;;;;;;;;;5049813;28;20037;-54
2022/10/04 01:07:33;;;;;;;2.10;0.90;;;;;;;;;;5041415;28;20112;-53
2022/10/04 01:10:03;;;;;;;2.20;0.88;;;;;;;;;;5044924;28;20033;-55
2022/10/04 01:12:40;;;;;;;1.45;0.73;;;;;;;;;;5051159;28;20029;-51
2022/10/04 01:15:21;;;;;;;1.50;0.70;;;;;;;;;;5046958;28;20049;-53
2022/10/04 01:18:10;;;;;;;3.22;0.77;;;;;;;;;;5051483;28;20036;-54
2022/10/04 01:20:38;;;;;;;1.20;0.70;;;;;;;;;;5051335;28;20049;-49
2022/10/04 01:23:04;;;;;;;1.35;0.80;;;;;;;;;;5052588;28;20035;-52
2022/10/04 01:25:48;;;;;;;2.28;1.33;;;;;;;;;;5045256;28;20033;-52
2022/10/04 01:28:14;;;;;;;0.85;0.68;;;;;;;;;;5051936;28;20745;-55
2022/10/04 01:30:40;;;;;;;1.35;0.75;;;;;;;;;;5041360;28;20040;-54
2022/10/04 01:33:06;;;;;;;1.40;0.70;;;;;;;;;;5053947;28;20032;-50
2022/10/04 01:35:34;;;;;;;2.03;0.85;;;;;;;;;;5048761;28;20166;-51
2022/10/04 01:38:02;;;;;;;1.83;0.90;;;;;;;;;;5054872;28;20048;-50
2022/10/04 01:40:30;;;;;;;1.48;0.80;;;;;;;;;;5059769;28;20029;-53
2022/10/04 01:43:01;;;;;;;1.33;0.80;;;;;;;;;;5054683;28;20411;-54
2022/10/04 01:45:31;;;;;;;1.92;0.70;;;;;;;;;;5051079;28;20083;-53
2022/10/04 01:48:03;;;;;;;1.30;0.70;;;;;;;;;;5056191;28;20036;-51
2022/10/04 01:50:30;;;;;;;1.35;0.70;;;;;;;;;;5050202;28;20041;-54
2022/10/04 01:53:01;;;;;;;1.58;0.80;;;;;;;;;;5056157;28;20103;-54
2022/10/04 01:55:33;;;;;;;1.75;0.70;;;;;;;;;;5047755;28;20116;-55
2022/10/04 01:58:12;;;;;;;1.55;0.80;;;;;;;;;;5055945;28;20060;-50
2022/10/04 02:00:41;;;;;;;0.98;0.60;;;;;;;;;;5046853;28;20033;-55
2022/10/04 02:03:12;;;;;;;1.52;0.70;;;;;;;;;;5051431;28;20384;-53
2022/10/04 02:05:41;;;;;;;1.85;0.80;;;;;;;;;;5052522;28;20068;-54
2022/10/04 02:08:10;;;;;;;1.30;0.70;;;;;;;;;;5054650;28;20032;-51
2022/10/04 02:10:37;;;;;;;2.05;0.90;;;;;;;;;;5054356;28;20427;-52
2022/10/04 02:13:07;;;;;;;1.25;0.75;;;;;;;;;;5055563;28;20098;-49
2022/10/04 02:15:34;;;;;;;2.10;0.80;;;;;;;;;;5051296;28;20033;-51
2022/10/04 02:18:00;;;;;;;1.45;0.63;;;;;;;;;;5054340;28;20090;-52
2022/10/04 02:20:27;;;;;;;1.15;0.70;;;;;;;;;;5054011;28;20052;-54
2022/10/04 02:23:02;;;;;;;1.48;0.80;;;;;;;;;;5055579;28;20029;-53
2022/10/04 02:25:28;;;;;;;2.05;0.70;;;;;;;;;;5053627;28;20048;-53
2022/10/04 02:27:54;;;;;;;0.93;0.60;;;;;;;;;;5055529;28;20039;-50
2022/10/04 02:30:20;;;;;;;1.45;0.77;;;;;;;;;;5053131;28;20072;-53
2022/10/04 02:32:58;;;;;;;1.20;0.70;;;;;;;;;;5053838;28;20060;-53
2022/10/04 02:35:27;;;;;;;1.70;0.80;;;;;;;;;;5044107;28;20075;-55
2022/10/04 02:38:05;;;;;;;2.50;0.70;;;;;;;;;;5050746;28;20097;-53
2022/10/04 02:40:38;;;;;;;2.22;0.80;;;;;;;;;;5046006;28;20036;-55
2022/10/04 02:43:14;;;;;;;1.50;0.73;;;;;;;;;;5045737;28;20405;-50
2022/10/04 02:46:06;;;;;;;1.25;0.70;;;;;;;;;;5049215;28;20392;-51
2022/10/04 02:49:15;;;;;;;2.00;0.77;;;;;;;;;;5052942;28;20488;-52
2022/10/04 02:52:00;;;;;;;0.93;0.70;;;;;;;;;;5012719;28;20116;-53
2022/10/04 02:54:29;;;;;;;1.20;0.70;;;;;;;;;;5049104;28;20086;-54
2022/10/04 02:56:56;;;;;;;1.40;0.70;;;;;;;;;;5053591;28;20039;-52
2022/10/04 02:59:22;;;;;;;1.20;0.70;;;;;;;;;;5050105;28;20041;-54
2022/10/04 03:01:56;;;;;;;1.08;0.70;;;;;;;;;;5046713;28;20037;-54
2022/10/04 03:04:27;;;;;;;1.15;0.70;;;;;;;;;;5054573;28;20037;-54
2022/10/04 03:06:53;;;;;;;1.50;0.80;;;;;;;;;;5054180;28;20040;-53
2022/10/04 03:09:21;;;;;;;1.40;0.77;;;;;;;;;;5054606;28;20062;-53
2022/10/04 03:11:48;;;;;;;1.33;0.70;;;;;;;;;;5050794;28;20047;-54
2022/10/04 03:14:24;;;;;;;1.20;0.70;;;;;;;;;;5053476;28;20048;-55
2022/10/04 03:16:53;;;;;;;2.42;0.70;;;;;;;;;;5048759;28;20037;-52
2022/10/04 03:19:20;;;;;;;1.33;0.70;;;;;;;;;;5053117;28;20044;-53
2022/10/04 03:21:49;;;;;;;1.45;0.75;;;;;;;;;;5049317;28;20087;-51
2022/10/04 03:24:38;;;;;;;1.67;0.70;;;;;;;;;;5052965;28;20395;-52
2022/10/04 03:27:06;;;;;;;1.27;0.80;;;;;;;;;;5045224;28;20037;-53
2022/10/04 03:29:32;;;;;;;1.52;0.80;;;;;;;;;;5052341;28;20439;-52
2022/10/04 03:32:00;;;;;;;1.30;0.60;;;;;;;;;;5052109;28;20408;-51
2022/10/04 03:34:34;;;;;;;1.80;0.75;;;;;;;;;;5047824;28;20040;-53
2022/10/04 03:37:01;;;;;;;1.52;0.70;;;;;;;;;;5051513;28;20420;-50
2022/10/04 03:39:32;;;;;;;1.40;0.88;;;;;;;;;;5046795;28;20063;-51
2022/10/04 03:42:11;;;;;;;2.08;0.90;;;;;;;;;;5055276;28;20037;-51
2022/10/04 03:44:36;;;;;;;1.30;0.80;;;;;;;;;;5047511;28;20049;-53
2022/10/04 03:47:09;;;;;;;1.42;0.80;;;;;;;;;;5042997;28;20055;-53
2022/10/04 03:49:36;;;;;;;0.80;0.60;;;;;;;;;;5052506;28;20045;-53
2022/10/04 03:52:02;;;;;;;0.98;0.60;;;;;;;;;;5052770;28;20044;-53
2022/10/04 03:54:28;;;;;;;1.05;0.60;;;;;;;;;;5051587;28;20095;-50
2022/10/04 03:56:54;;;;;;;1.20;0.70;;;;;;;;;;5052650;28;20071;-50
2022/10/04 03:59:23;;;;;;;1.35;0.70;;;;;;;;;;5045485;28;20063;-50
2022/10/04 04:02:13;;;;;;;2.50;0.65;;;;;;;;;;5046330;28;20040;-52
2022/10/04 04:04:49;;;;;;;1.52;0.70;;;;;;;;;;5049153;28;20104;-54
2022/10/04 04:07:57;;;;;;;1.02;0.60;;;;;;;;;;5053717;28;20391;-52
2022/10/04 04:10:26;;;;;;;1.73;0.82;;;;;;;;;;5044310;28;20132;-50
2022/10/04 04:12:56;;;;;;;2.22;0.82;;;;;;;;;;5052160;28;20036;-50
2022/10/04 04:15:22;;;;;;;0.93;0.60;;;;;;;;;;5044879;28;20403;-54
2022/10/04 04:17:52;;;;;;;0.98;0.60;;;;;;;;;;5046035;28;20041;-49
2022/10/04 04:20:27;;;;;;;1.20;0.60;;;;;;;;;;5049764;28;20469;-52
2022/10/04 04:23:03;;;;;;;1.30;0.70;;;;;;;;;;5051735;28;20599;-53
2022/10/04 04:25:32;;;;;;;1.05;0.60;;;;;;;;;;5043058;28;20067;-54
2022/10/04 04:28:17;;;;;;;1.45;0.70;;;;;;;;;;5051199;28;20037;-55
2022/10/04 04:30:44;;;;;;;1.38;0.70;;;;;;;;;;5039207;28;20411;-53
2022/10/04 04:33:18;;;;;;;1.60;0.60;;;;;;;;;;5050075;28;20115;-52
2022/10/04 04:35:44;;;;;;;1.23;0.73;;;;;;;;;;5052130;28;20048;-52
2022/10/04 04:38:12;;;;;;;0.95;0.60;;;;;;;;;;5049872;28;20033;-51
2022/10/04 04:40:37;;;;;;;1.58;0.80;;;;;;;;;;5042622;28;20091;-50
2022/10/04 04:43:03;;;;;;;1.08;0.65;;;;;;;;;;5046347;28;20424;-50
2022/10/04 04:45:30;;;;;;;1.80;0.70;;;;;;;;;;5035728;28;20041;-53
2022/10/04 04:47:57;;;;;;;1.35;0.75;;;;;;;;;;5040195;28;20060;-53
2022/10/04 04:50:25;;;;;;;1.08;0.60;;;;;;;;;;5053289;28;20392;-51
2022/10/04 04:52:59;;;;;;;0.95;0.70;;;;;;;;;;5050224;28;20427;-52
2022/10/04 04:55:26;;;;;;;1.63;0.80;;;;;;;;;;5066644;28;20049;-53
2022/10/04 04:57:54;;;;;;;1.33;0.80;;;;;;;;;;5052943;28;20475;-51
2022/10/04 05:00:25;;;;;;;1.50;0.90;;;;;;;;;;5044286;28;20036;-57
2022/10/04 05:02:55;;;;;;;1.88;0.65;;;;;;;;;;5048460;28;20114;-54
2022/10/04 05:05:26;;;;;;;1.40;0.73;;;;;;;;;;5044199;28;20037;-52
2022/10/04 05:08:03;;;;;;;0.85;0.50;;;;;;;;;;5046144;28;20029;-52
2022/10/04 05:10:31;;;;;;;1.77;0.85;;;;;;;;;;5055681;28;20043;-51
2022/10/04 05:12:58;;;;;;;1.00;0.70;;;;;;;;;;5056372;28;20055;-53
2022/10/04 05:15:25;;;;;;;1.10;0.70;;;;;;;;;;5049768;28;20492;-52
2022/10/04 05:17:50;;;;;;;1.05;0.70;;;;;;;;;;5052556;28;20041;-52
2022/10/04 05:20:16;;;;;;;2.00;0.80;;;;;;;;;;5049017;28;20041;-50
2022/10/04 05:22:46;;;;;;;0.93;0.60;;;;;;;;;;5055127;28;20079;-51
2022/10/04 05:25:18;;;;;;;1.02;0.70;;;;;;;;;;5052136;28;20506;-53
2022/10/04 05:27:44;;;;;;;1.13;0.60;;;;;;;;;;5055479;28;20060;-51
2022/10/04 05:30:15;;;;;;;1.90;0.77;;;;;;;;;;5054190;28;20377;-53
2022/10/04 05:33:00;;;;;;;1.13;0.80;;;;;;;;;;5049817;28;20056;-53
2022/10/04 05:35:27;;;;;;;1.42;0.70;;;;;;;;;;5053556;28;20044;-51
2022/10/04 05:38:10;;;;;;;1.33;0.63;;;;;;;;;;5046568;28;20484;-52
2022/10/04 05:41:00;;;;;;;0.80;0.60;;;;;;;;;;5047697;28;20033;-51
2022/10/04 05:43:45;;;;;;;1.35;0.73;;;;;;;;;;5047220;28;20044;-51
2022/10/04 05:46:20;;;;;;;0.90;0.60;;;;;;;;;;5054287;28;20048;-53
2022/10/04 05:48:50;;;;;;;1.40;0.60;;;;;;;;;;5046047;28;20037;-52
2022/10/04 05:51:22;;;;;;;1.65;0.60;;;;;;;;;;5048226;28;20044;-55
2022/10/04 05:53:49;;;;;;;1.92;0.88;;;;;;;;;;5049214;28;20117;-51
2022/10/04 05:56:29;;;;;;;0.93;0.60;;;;;;;;;;5053688;28;20057;-52
2022/10/04 05:59:06;;;;;;;1.30;0.70;;;;;;;;;;5043234;28;20408;-54
2022/10/04 06:01:47;;;;;;;0.98;0.52;;;;;;;;;;5051305;28;20064;-50
2022/10/04 06:04:30;;;;;;;1.17;0.57;;;;;;;;;;5046791;28;20052;-53
2022/10/04 06:07:14;;;;;;;1.10;0.77;;;;;;;;;;5066762;28;20526;-55
2022/10/04 06:09:55;;;;;;;0.98;0.60;;;;;;;;;;5055367;28;20116;-54
2022/10/04 06:12:35;;;;;;;1.10;0.57;;;;;;;;;;5041773;28;20499;-50
2022/10/04 06:15:23;;;;;;;0.95;0.60;;;;;;;;;;5052697;28;20029;-52
2022/10/04 06:18:30;;;;;;;1.38;0.60;;;;;;;;;;5054564;28;20179;-52
2022/10/04 06:21:30;;;;;;;0.98;0.60;;;;;;;;;;5028922;28;20553;-54
2022/10/04 06:24:01;;;;;;;0.90;0.70;;;;;;;;;;5049949;28;20408;-53
2022/10/04 06:26:36;;;;;;;0.60;0.60;;;;;;;;;;5054334;28;20123;-53
2022/10/04 06:29:16;;;;;;;1.05;0.60;;;;;;;;;;5052478;28;20130;-52
2022/10/04 06:31:45;;;;;;;1.27;0.70;;;;;;;;;;5048739;28;20036;-52
2022/10/04 06:34:41;;;;;;;0.73;0.52;;;;;;;;;;5054376;28;20044;-53
2022/10/04 06:37:43;;;;;;;1.50;0.57;;;;;;;;;;5050947;28;20043;-54
2022/10/04 06:40:42;;;;;;;0.80;0.50;;;;;;;;;;5041115;28;20040;-50
2022/10/04 06:43:14;;;;;;;0.90;0.50;;;;;;;;;;5049271;28;20033;-50
2022/10/04 06:46:07;;;;;;;2.72;1.20;;;;;;;;;;5053910;28;20045;-54
2022/10/04 06:48:46;;;;;;;1.13;0.60;;;;;;;;;;5042172;28;20433;-56
2022/10/04 06:51:14;;;;;;;0.70;0.57;;;;;;;;;;5042298;28;20044;-58
2022/10/04 06:54:04;;;;;;;0.85;0.60;;;;;;;;;;5048677;28;20029;-58
2022/10/04 06:56:54;;;;;;;0.68;0.55;;;;;;;;;;5054200;28;20127;-58
2022/10/04 06:59:44;;;;;;;3.65;0.70;;;;;;;;;;5043706;28;20560;-58
2022/10/04 07:02:26;;;;;;;1.30;0.63;;;;;;;;;;5043582;28;20195;-57
2022/10/04 07:04:59;;;;;;;1.05;0.60;;;;;;;;;;5042864;28;20065;-57
2022/10/04 07:07:36;;;;;;;1.25;0.80;;;;;;;;;;5054383;28;20093;-58
2022/10/04 07:10:33;;;;;;;0.68;0.55;;;;;;;;;;5046353;28;20408;-58
2022/10/04 07:13:10;;;;;;;1.73;0.80;;;;;;;;;;5047164;28;20144;-57
2022/10/04 07:15:58;;;;;;;2.13;0.68;;;;;;;;;;5049221;28;20455;-58
2022/10/04 07:18:28;;;;;;;1.17;0.60;;;;;;;;;;5055870;28;20041;-57
2022/10/04 07:21:02;;;;;;;0.85;0.60;;;;;;;;;;5065640;28;20471;-58
2022/10/04 07:23:31;;;;;;;0.65;0.50;;;;;;;;;;5060578;28;20041;-58
2022/10/04 07:26:16;;;;;;;0.80;0.60;;;;;;;;;;5057431;28;20396;-58
2022/10/04 07:31:30;;;;;;;0.80;0.50;;;;;;;;;;5053967;28;20103;-59
2022/10/04 07:33:59;;;;;;;0.93;0.60;;;;;;;;;;5050953;28;20041;-58
2022/10/04 07:36:42;;;;;;;3.20;0.75;;;;;;;;;;5046168;28;20489;-58
2022/10/04 07:39:24;;;;;;;0.60;0.50;;;;;;;;;;5048091;28;20115;-58
2022/10/04 07:41:50;;;;;;;2.25;0.50;;;;;;;;;;5044430;28;20123;-59
2022/10/04 07:44:29;;;;;;;3.10;0.70;;;;;;;;;;5045597;28;20454;-57
2022/10/04 07:47:04;;;;;;;0.90;0.52;;;;;;;;;;5043479;28;20516;-57
2022/10/04 07:49:37;;;;;;;1.77;0.77;;;;;;;;;;5043083;28;20503;-60
2022/10/04 07:52:17;;;;;;;1.83;0.60;;;;;;;;;;5053849;28;20037;-63
2022/10/04 07:55:01;;;;;;;3.95;0.88;;;;;;;;;;5048280;28;20048;-59
2022/10/04 07:57:26;;;;;;;;;;;;;;;;;;5035081;28;20037;-60
2022/10/04 07:59:54;;;;;;;1.27;0.60;;;;;;;;;;5032386;28;20002;-61
2022/10/04 08:02:38;;;;;;;1.27;0.70;;;;;;;;;;5042917;28;20075;-59
2022/10/04 08:05:05;;;;;;;;;;;;;;;;;;5046660;28;20052;-64
2022/10/04 08:07:59;;;;;;;3.67;0.70;;;;;;;;;;5050334;28;19929;-59
2022/10/04 08:10:49;;;;;;;2.75;0.70;;;;;;;;;;5040908;28;20061;-60
2022/10/04 08:13:18;;;;;;;1.80;0.70;;;;;;;;;;5039719;28;20139;-61
2022/10/04 08:15:44;;;;;;;2.53;0.60;;;;;;;;;;5044403;28;20100;-61
2022/10/04 08:18:24;;;;;;;9.30;0.80;;;;;;;;;;5037649;28;20123;-62
2022/10/04 08:21:05;;;;;;;1.83;0.75;;;;;;;;;;5050940;28;20398;-60
2022/10/04 08:23:52;;;;;;;2.28;0.50;;;;;;;;;;5032684;28;20124;-59
2022/10/04 08:26:51;;;;;;;3.30;0.65;;;;;;;;;;5045959;28;20041;-60
2022/10/04 08:29:46;;;;;;;0.90;0.60;;;;;;;;;;5039403;28;20462;-61
2022/10/04 08:32:31;;;;;;;10.30;0.95;;;;;;;;;;5029284;28;20041;-61
2022/10/04 08:35:32;;;;;;;0.88;0.50;;;;;;;;;;5047400;28;20404;-59
2022/10/04 08:38:17;;;;;;;2.35;0.70;;;;;;;;;;5041599;28;20398;-58
2022/10/04 08:40:48;;;;;;;2.33;0.70;;;;;;;;;;5049982;28;20129;-59
2022/10/04 08:43:26;;;;;;;6.25;0.95;;;;;;;;;;5037315;28;20072;-59
2022/10/04 08:45:56;;;;;;;3.92;0.73;;;;;;;;;;5043525;28;20053;-59
2022/10/04 08:48:58;;;;;;;3.38;0.80;;;;;;;;;;5035136;28;20037;-58
2022/10/04 08:51:40;;;;;;;3.08;0.60;;;;;;;;;;5050326;28;20037;-59
2022/10/04 08:54:16;;;;;;;2.38;0.70;;;;;;;;;;5048496;28;20128;-59
2022/10/04 08:57:11;;;;;;;0.80;0.50;;;;;;;;;;5041265;28;20536;-59
2022/10/04 09:00:12;;;;;;;4.40;0.95;;;;;;;;;;5052795;28;20045;-59
2022/10/04 09:03:10;;;;;;;4.03;0.80;;;;;;;;;;5034962;28;20045;-63
2022/10/04 09:06:13;;;;;;;3.20;0.75;;;;;;;;;;5018522;28;20118;-59
2022/10/04 09:08:57;;;;;;;1.33;0.80;;;;;;;;;;5048392;28;20040;-65
2022/10/04 09:11:41;;;;;;;2.63;0.70;;;;;;;;;;5048761;28;20476;-59
2022/10/04 09:14:55;;;;;;;2.88;0.70;;;;;;;;;;5041627;28;20044;-59
2022/10/04 09:17:58;;;;;;;2.15;0.50;;;;;;;;;;4987089;28;20092;-59
2022/10/04 09:20:42;;;;;;;2.53;0.60;;;;;;;;;;5031597;28;20045;-59
2022/10/04 09:23:16;;;;;;;2.00;0.80;;;;;;;;;;5040014;28;20044;-58
2022/10/04 09:26:05;;;;;;;2.67;0.52;;;;;;;;;;5038713;28;20065;-58
2022/10/04 09:28:33;;;;;;;2.65;0.70;;;;;;;;;;5048496;28;20087;-59
2022/10/04 09:31:06;;;;;;;1.30;0.70;;;;;;;;;;5048521;28;20040;-58
2022/10/04 09:34:06;;;;;;;1.00;0.60;;;;;;;;;;5047994;28;20554;-58
2022/10/04 09:36:51;;;;;;;1.33;0.50;;;;;;;;;;5056414;28;20564;-58
2022/10/04 09:39:44;;;;;;;1.27;0.70;;;;;;;;;;5037945;28;20480;-58
2022/10/04 09:42:41;;;;;;;0.40;0.40;;;;;;;;;;5042302;28;20037;-59
2022/10/04 09:45:26;;;;;;;2.17;0.70;;;;;;;;;;5047546;28;20064;-60
2022/10/04 09:48:03;;;;;;;3.80;0.60;;;;;;;;;;5037246;28;20032;-58
2022/10/04 09:50:30;;;;;;;1.10;0.50;;;;;;;;;;5048631;28;20037;-59
2022/10/04 09:53:14;;;;;;;2.78;1.45;;;;;;;;;;5050764;28;20059;-58
2022/10/04 09:56:26;;;;;;;1.15;0.75;;;;;;;;;;5036565;28;20045;-58
2022/10/04 09:59:26;;;;;;;0.98;0.50;;;;;;;;;;5029856;28;20041;-59
2022/10/04 10:01:57;;;;;;;1.52;0.50;;;;;;;;;;5021103;28;20049;-58
2022/10/04 10:05:07;;;;;;;1.90;0.50;;;;;;;;;;5045620;28;20057;-59
2022/10/04 10:08:08;;;;;;;4.95;0.80;;;;;;;;;;5052159;28;20124;-58
2022/10/04 10:13:58;;;;;;;3.45;0.60;;;;;;;;;;5047278;28;20044;-58
2022/10/04 10:16:50;;;;;;;2.70;0.50;;;;;;;;;;5051075;28;20045;-69
2022/10/04 10:19:27;;;;;;;2.95;0.52;;;;;;;;;;5037172;28;20041;-59
2022/10/04 10:22:01;;;;;;;0.52;0.50;;;;;;;;;;5040354;28;20041;-58
2022/10/04 10:24:51;;;;;;;1.98;0.55;;;;;;;;;;5045308;28;20073;-59
2022/10/04 10:27:23;;;;;;;2.28;0.70;;;;;;;;;;5043849;28;20076;-59
2022/10/04 10:29:52;;;;;;;4.22;0.50;;;;;;;;;;5032398;28;20124;-58
2022/10/04 10:32:32;;;;;;;1.55;0.57;;;;;;;;;;5039897;28;20056;-60
2022/10/04 10:35:13;;;;;;;0.82;0.50;;;;;;;;;;5051512;28;20048;-59
2022/10/04 10:38:17;;;;;;;0.80;0.55;;;;;;;;;;5050035;28;20045;-59
2022/10/04 10:41:03;;;;;;;1.00;0.60;;;;;;;;;;5036151;28;20065;-58
2022/10/04 10:43:56;;;;;;;0.40;0.40;;;;;;;;;;5050630;28;20056;-59
2022/10/04 10:46:48;;;;;;;1.67;0.60;;;;;;;;;;5050954;28;20052;-60
2022/10/04 10:50:04;;;;;;;1.20;0.52;;;;;;;;;;5044489;28;20045;-58
2022/10/04 10:52:45;;;;;;;1.83;0.80;;;;;;;;;;5039551;28;20046;-58
2022/10/04 10:55:31;;;;;;;0.80;0.50;;;;;;;;;;5038948;28;20041;-59
2022/10/04 10:58:44;;;;;;;2.03;0.52;;;;;;;;;;5035312;28;20056;-58
2022/10/04 11:01:45;;;;;;;0.80;0.50;;;;;;;;;;5042913;28;20052;-58
2022/10/04 11:04:38;;;;;;;2.22;0.40;;;;;;;;;;5048856;28;20090;-58
2022/10/04 11:07:16;;;;;;;0.82;0.43;;;;;;;;;;5049183;28;20396;-59
2022/10/04 11:10:13;;;;;;;1.00;0.50;;;;;;;;;;5050400;28;20041;-58
2022/10/04 11:13:17;;;;;;;1.40;0.50;;;;;;;;;;5038918;28;20037;-59
2022/10/04 11:16:00;;;;;;;;;;;;;;;;;;5041408;28;20055;-58
2022/10/04 11:19:09;;;;;;;1.75;0.60;;;;;;;;;;5049599;28;19956;-59
2022/10/04 11:21:44;;;;;;;1.58;0.50;;;;;;;;;;5040192;28;20052;-59
2022/10/04 11:24:24;;;;;;;2.00;0.60;;;;;;;;;;5045225;28;20370;-58
2022/10/04 11:27:05;;;;;;;1.02;0.43;;;;;;;;;;5050035;28;20051;-59
2022/10/04 11:29:30;;;;;;;1.50;0.52;;;;;;;;;;5049731;28;20051;-59
2022/10/04 11:32:30;;;;;;;1.10;0.50;;;;;;;;;;5042273;28;20115;-59
2022/10/04 11:35:35;;;;;;;0.55;0.40;;;;;;;;;;5039413;28;20057;-58
2022/10/04 11:38:04;;;;;;;0.57;0.40;;;;;;;;;;5048459;28;20106;-59
2022/10/04 11:40:35;;;;;;;1.73;0.55;;;;;;;;;;5050283;28;20040;-59
2022/10/04 11:43:19;;;;;;;0.82;0.50;;;;;;;;;;5041625;28;20389;-58
2022/10/04 11:45:59;;;;;;;0.50;0.50;;;;;;;;;;5048748;28;20057;-58
2022/10/04 11:48:52;;;;;;;0.90;0.50;;;;;;;;;;5049234;28;20496;-60
2022/10/04 11:51:27;;;;;;;2.37;0.57;;;;;;;;;;5047892;28;20136;-59
2022/10/04 11:54:13;;;;;;;1.42;0.63;;;;;;;;;;5046163;28;20300;-59
2022/10/04 11:56:55;;;;;;;4.72;1.70;;;;;;;;;;5042078;28;20044;-58
2022/10/04 11:59:41;;;;;;;1.20;0.50;;;;;;;;;;5049368;28;20116;-58
2022/10/04 12:02:16;;;;;;;2.80;0.60;;;;;;;;;;5046667;28;20476;-58
2022/10/04 12:05:03;;;;;;;2.83;0.73;;;;;;;;;;5049235;28;20049;-63
2022/10/04 12:07:41;;;;;;;3.13;0.50;;;;;;;;;;5049588;28;20452;-58
2022/10/04 12:10:21;;;;;;;2.35;0.80;;;;;;;;;;5041012;28;20033;-58
2022/10/04 12:13:20;;;;;;;1.85;0.70;;;;;;;;;;5046784;28;20041;-58
2022/10/04 12:15:52;;;;;;;5.88;0.80;;;;;;;;;;5035306;28;20037;-58
2022/10/04 12:18:52;;;;;;;2.78;0.68;;;;;;;;;;5045025;28;20060;-59
2022/10/04 12:21:41;;;;;;;2.08;0.73;;;;;;;;;;5048962;28;20122;-59
2022/10/04 12:24:19;;;;;;;3.40;0.73;;;;;;;;;;5047297;28;20048;-59
2022/10/04 12:27:22;;;;;;;1.75;0.70;;;;;;;;;;5049026;28;20041;-59
2022/10/04 12:30:09;;;;;;;2.60;0.80;;;;;;;;;;5039505;28;20054;-59
2022/10/04 12:32:38;;;;;;;2.15;0.82;;;;;;;;;;5038352;28;20045;-60
2022/10/04 12:35:30;;;;;;;2.00;0.80;;;;;;;;;;5049232;28;20057;-58
2022/10/04 12:38:05;;;;;;;2.00;0.75;;;;;;;;;;5046336;28;20041;-59
2022/10/04 12:40:36;;;;;;;1.80;0.60;;;;;;;;;;5036513;28;20110;-57
2022/10/04 12:43:21;;;;;;;1.38;0.75;;;;;;;;;;5044888;28;20052;-59
2022/10/04 12:46:10;;;;;;;2.00;0.73;;;;;;;;;;5041311;28;20052;-58
2022/10/04 12:48:47;;;;;;;2.83;0.70;;;;;;;;;;5039989;28;20103;-60
2022/10/04 12:51:41;;;;;;;2.63;0.77;;;;;;;;;;5046412;28;20044;-58
2022/10/04 12:54:22;;;;;;;1.45;0.63;;;;;;;;;;5038131;28;20377;-58
2022/10/04 12:57:12;;;;;;;2.45;0.70;;;;;;;;;;5047468;28;20037;-58
2022/10/04 12:59:47;;;;;;;2.47;0.70;;;;;;;;;;5039668;28;20047;-59
2022/10/04 13:02:31;;;;;;;1.55;0.73;;;;;;;;;;5033146;28;20120;-61
2022/10/04 13:05:12;;;;;;;2.03;0.70;;;;;;;;;;5038248;28;20064;-59
2022/10/04 13:07:47;;;;;;;1.35;0.60;;;;;;;;;;5047320;28;20041;-59
2022/10/04 13:10:43;;;;;;;4.80;0.80;;;;;;;;;;5047612;28;20037;-57
2022/10/04 13:13:34;;;;;;;5.97;0.90;;;;;;;;;;5053850;28;20059;-58
2022/10/04 13:16:09;;;;;;;3.65;0.90;;;;;;;;;;5047287;28;20127;-59
2022/10/04 13:19:04;;;;;;;2.63;0.52;;;;;;;;;;5048916;28;20044;-60
2022/10/04 13:21:35;;;;;;;2.00;0.82;;;;;;;;;;5048196;28;20049;-58
2022/10/04 13:24:23;;;;;;;3.15;0.60;;;;;;;;;;5040898;28;20033;-56
2022/10/04 13:26:58;;;;;;;2.03;0.82;;;;;;;;;;5040551;28;20061;-57
2022/10/04 13:29:28;;;;;;;2.05;0.73;;;;;;;;;;5043516;28;20122;-57
2022/10/04 13:32:06;;;;;;;4.10;0.77;;;;;;;;;;5050767;28;20052;-58
2022/10/04 13:34:49;;;;;;;2.47;0.90;;;;;;;;;;5052324;28;20051;-57
2022/10/04 13:37:59;;;;;;;6.03;0.90;;;;;;;;;;5050871;28;20048;-59
2022/10/04 13:41:00;;;;;;;2.33;0.93;;;;;;;;;;5037153;28;20045;-58
2022/10/04 13:43:28;;;;;;;2.17;0.75;;;;;;;;;;5049641;28;20084;-58
2022/10/04 13:46:12;;;;;;;2.25;0.80;;;;;;;;;;5051510;28;20124;-58
2022/10/04 13:48:54;;;;;;;1.83;0.70;;;;;;;;;;5051998;28;20379;-59
2022/10/04 13:51:37;;;;;;;2.38;0.80;;;;;;;;;;5047108;28;20060;-57
2022/10/04 13:57:23;;;;;;;1.60;0.60;;;;;;;;;;5047861;28;20086;-58
2022/10/04 14:00:00;;;;;;;2.60;0.70;;;;;;;;;;5050897;28;20077;-57
2022/10/04 14:02:32;;;;;;;1.25;0.52;;;;;;;;;;5041018;28;20059;-58
2022/10/04 14:05:14;;;;;;;2.05;0.70;;;;;;;;;;5050831;28;20037;-58
2022/10/04 14:08:10;;;;;;;1.67;0.52;;;;;;;;;;5051359;28;20068;-58
2022/10/04 14:11:06;;;;;;;1.70;0.60;;;;;;;;;;5041157;28;20037;-58
2022/10/04 14:13:41;;;;;;;1.92;0.60;;;;;;;;;;5039482;28;20454;-60
2022/10/04 14:16:37;;;;;;;1.30;0.60;;;;;;;;;;5051012;28;20049;-57
2022/10/04 14:19:27;;;;;;;1.83;0.80;;;;;;;;;;5052261;28;20037;-57
2022/10/04 14:22:11;;;;;;;1.00;0.52;;;;;;;;;;5039690;28;20029;-57
2022/10/04 14:25:14;;;;;;;1.42;0.70;;;;;;;;;;5050858;28;20036;-60
2022/10/04 14:27:49;;;;;;;3.53;0.50;;;;;;;;;;5051337;28;20055;-58
2022/10/04 14:30:36;;;;;;;1.02;0.40;;;;;;;;;;5051305;28;20500;-58
2022/10/04 14:33:20;;;;;;;1.45;0.65;;;;;;;;;;5038811;28;20381;-58
2022/10/04 14:35:46;;;;;;;2.38;0.85;;;;;;;;;;5051182;28;20063;-58
2022/10/04 14:38:36;;;;;;;0.88;0.45;;;;;;;;;;5049037;28;20072;-57
2022/10/04 14:41:29;;;;;;;1.00;0.60;;;;;;;;;;5045648;28;20045;-57
2022/10/04 14:44:34;;;;;;;0.98;0.60;;;;;;;;;;5031802;28;20051;-57
2022/10/04 14:47:46;;;;;;;0.65;0.50;;;;;;;;;;5047929;28;20060;-57
2022/10/04 14:50:26;;;;;;;1.63;0.57;;;;;;;;;;5047964;28;20053;-58
2022/10/04 14:53:35;;;;;;;1.23;0.52;;;;;;;;;;5047986;28;20048;-59
2022/10/04 14:56:26;;;;;;;0.75;0.50;;;;;;;;;;5026367;28;20045;-57
2022/10/04 14:58:54;;;;;;;1.17;0.52;;;;;;;;;;5050311;28;20062;-57
2022/10/04 15:01:26;;;;;;;1.38;0.52;;;;;;;;;;5047854;28;20037;-58
2022/10/04 15:04:14;;;;;;;2.42;0.60;;;;;;;;;;5039522;28;20036;-59
2022/10/04 15:07:09;;;;;;;1.60;0.60;;;;;;;;;;5040025;28;20041;-58
2022/10/04 15:10:12;;;;;;;0.75;0.52;;;;;;;;;;5047967;28;20049;-58
2022/10/04 15:12:42;;;;;;;1.52;0.63;;;;;;;;;;5044766;28;20082;-58
2022/10/04 15:15:12;;;;;;;0.98;0.50;;;;;;;;;;5050019;28;20076;-58
2022/10/04 15:18:03;;;;;;;1.50;0.70;;;;;;;;;;5050498;28;20044;-58
2022/10/04 15:20:47;;;;;;;2.47;0.57;;;;;;;;;;5043617;28;20072;-54
2022/10/04 15:23:33;;;;;;;2.88;1.00;;;;;;;;;;5047365;28;20032;-56
2022/10/04 15:26:22;;;;;;;2.92;0.70;;;;;;;;;;5044656;28;20094;-55
2022/10/04 15:28:53;;;;;;;2.83;1.20;;;;;;;;;;5025229;28;20044;-56
2022/10/04 15:31:30;;;;;;;2.97;0.90;;;;;;;;;;5036925;28;20090;-55
2022/10/04 15:34:33;;;;;;;2.08;0.90;;;;;;;;;;5049698;28;20480;-57
2022/10/04 15:37:10;;;;;;;2.33;0.90;;;;;;;;;;5036600;28;20033;-56
2022/10/04 15:39:53;;;;;;;1.98;0.90;;;;;;;;;;5048399;28;20040;-57
2022/10/04 15:42:40;;;;;;;2.03;0.90;;;;;;;;;;5048520;28;20091;-57
2022/10/04 15:45:17;;;;;;;1.60;0.60;;;;;;;;;;5049748;28;20395;-55
2022/10/04 15:48:31;;;;;;;1.90;0.68;;;;;;;;;;5046303;28;20472;-55
2022/10/04 15:51:16;;;;;;;3.33;0.90;;;;;;;;;;5026131;28;20493;-57
2022/10/04 15:54:03;;;;;;;1.77;0.60;;;;;;;;;;5033405;28;20057;-58
2022/10/04 15:56:41;;;;;;;2.85;1.08;;;;;;;;;;5029992;28;20523;-57
2022/10/04 15:59:29;;;;;;;3.85;0.80;;;;;;;;;;5046641;28;20480;-56
2022/10/04 16:02:26;;;;;;;3.50;0.75;;;;;;;;;;5048511;28;20029;-57
2022/10/04 16:04:58;;;;;;;2.03;0.70;;;;;;;;;;5049099;28;20035;-55
2022/10/04 16:07:49;;;;;;;2.83;0.70;;;;;;;;;;5037496;28;20480;-59
2022/10/04 16:10:53;;;;;;;0.88;0.60;;;;;;;;;;5036032;28;20048;-56